If you wish to contribute or participate in the discussions about articles you are invited to join SKYbrary as a registered user

 Actions

Rosario International Airport

From SKYbrary Wiki

SAAR
Airport
ICAO: SAAR – IATA: ROS
Summary
Name Rosario International Airport
Region South America and Caribbean
Territory Argentina AR.gif
Location Rosario, Santa Fe
Serving Rosario
Elevation 25.908 m
85 ft
85 ft25.908 m
Type medium airport
Coordinates 32° 54' 13.00" S, 60° 47' 6.00" W
Runways
Designator Length Width Surface ROPS
2/20 3000 m9,842.52 ft
45 m147.638 ft
CON yes/yes


METAR
Observation SAAR 150400Z 11014KT CAVOK 11/03 Q1028
Station Rosario Aerodrome
Date/Time 15 October 2019 04:00:00
Wind direction 110°
Wind speed 14 kts
Lowest cloud amount clouds and visibility OK
Temperature 11°C
Dew point 3°C
Humidity 57%
QNH 1028 hPa
Weather condition n/a

Airport 13km 7.019 nm
13,000 m
42,650.919 ft
west-northwest from the centre of Rosario, a city in Santa Fe province, Argentina.

Climatology

Warm oceanic climate (Köppen climate classification Cfa).

Maps

Terrain

Loading map...

Airport Layout

Loading map...


Accidents & Serious Incidents at or in vicinity of SAAR

None on SKYbrary